createdAt,value
2018-04-22T00:02:00.903Z,16.90
2018-04-22T00:04:29.129Z,17.30
2018-04-22T00:06:56.592Z,17.30
2018-04-22T00:09:24.036Z,17.70
2018-04-22T00:11:51.489Z,17.50
2018-04-22T00:14:18.947Z,17.50
2018-04-22T00:16:46.391Z,17.60
2018-04-22T00:19:14.600Z,17.70
2018-04-22T00:21:42.093Z,17.70
2018-04-22T00:24:09.561Z,17.40
2018-04-22T00:26:37.014Z,17.50
2018-04-22T00:29:04.488Z,17.60
2018-04-22T00:31:31.947Z,17.30
2018-04-22T00:33:59.398Z,17.50
2018-04-22T00:36:26.860Z,17.20
2018-04-22T00:38:54.303Z,16.60
2018-04-22T00:41:21.814Z,16.80
2018-04-22T00:43:49.276Z,16.60
2018-04-22T00:46:16.712Z,16.50
2018-04-22T00:48:44.928Z,16.80
2018-04-22T00:51:12.385Z,16.80
2018-04-22T00:53:51.763Z,16.90
2018-04-22T00:56:19.229Z,17.10
2018-04-22T00:58:47.443Z,16.80
2018-04-22T01:01:14.913Z,16.80
2018-04-22T01:03:42.370Z,16.90
2018-04-22T01:06:09.832Z,16.90
2018-04-22T01:08:37.336Z,16.60
2018-04-22T01:11:05.554Z,16.30
2018-04-22T01:13:33.000Z,16.30
2018-04-22T01:16:00.570Z,16.40
2018-04-22T01:18:28.016Z,16.10
2018-04-22T01:20:55.493Z,16.20
2018-04-22T01:23:22.946Z,15.90
2018-04-22T01:25:50.421Z,15.70
2018-04-22T01:28:17.890Z,15.70
2018-04-22T01:30:45.342Z,15.80
2018-04-22T01:33:12.787Z,16.10
2018-04-22T01:35:41.001Z,16.20
2018-04-22T01:38:08.448Z,16.10
2018-04-22T01:40:35.902Z,15.90
2018-04-22T01:43:03.360Z,16.20
2018-04-22T01:45:31.620Z,16.40
2018-04-22T01:47:59.066Z,16.40
2018-04-22T01:50:26.509Z,16.50
2018-04-22T01:52:54.057Z,16.50
2018-04-22T01:55:21.549Z,16.10
2018-04-22T01:57:48.998Z,16.10
2018-04-22T02:00:16.455Z,16.20
2018-04-22T02:02:43.921Z,16.00
2018-04-22T02:05:11.389Z,16.10
2018-04-22T02:07:38.834Z,16.30
2018-04-22T02:10:06.288Z,16.50
2018-04-22T02:12:33.752Z,16.20
2018-04-22T02:15:01.219Z,16.10
2018-04-22T02:17:28.662Z,16.00
2018-04-22T02:19:56.116Z,15.60
2018-04-22T02:22:24.333Z,15.60
2018-04-22T02:24:51.823Z,15.50
2018-04-22T02:27:19.275Z,15.50
2018-04-22T02:29:46.712Z,15.40
2018-04-22T02:32:14.156Z,15.40
2018-04-22T02:34:41.613Z,15.00
2018-04-22T02:37:09.843Z,15.20
2018-04-22T02:39:37.292Z,15.20
2018-04-22T02:42:04.732Z,15.10
2018-04-22T02:44:32.199Z,15.10
2018-04-22T02:46:59.645Z,14.90
2018-04-22T02:49:27.092Z,15.10
2018-04-22T02:51:54.547Z,15.30
2018-04-22T02:54:22.047Z,15.10
2018-04-22T02:56:49.496Z,15.00
2018-04-22T02:59:16.944Z,15.00
2018-04-22T03:01:45.162Z,15.00
2018-04-22T03:04:12.614Z,15.00
2018-04-22T03:06:40.069Z,14.50
2018-04-22T03:09:07.515Z,14.60
2018-04-22T03:11:35.751Z,14.80
2018-04-22T03:14:03.188Z,14.80
2018-04-22T03:16:30.789Z,14.70
2018-04-22T03:18:58.224Z,14.90
2018-04-22T03:21:25.693Z,15.30
2018-04-22T03:23:53.139Z,15.30
2018-04-22T03:26:20.596Z,15.10
2018-04-22T03:28:48.048Z,15.30
2018-04-22T03:31:15.492Z,15.20
2018-04-22T03:33:43.716Z,15.00
2018-04-22T03:36:11.167Z,15.00
2018-04-22T03:38:38.622Z,15.10
2018-04-22T03:41:06.088Z,15.30
2018-04-22T03:43:33.527Z,15.30
2018-04-22T03:46:01.783Z,15.00
2018-04-22T03:48:29.334Z,15.00
2018-04-22T03:50:56.779Z,15.00
2018-04-22T03:53:24.227Z,15.20
2018-04-22T03:55:51.703Z,15.40
2018-04-22T03:58:19.148Z,15.20
2018-04-22T04:00:46.613Z,15.20
2018-04-22T04:03:14.137Z,15.20
2018-04-22T04:05:41.578Z,15.30
2018-04-22T04:08:09.035Z,15.20
2018-04-22T04:10:36.483Z,14.90
2018-04-22T04:13:03.945Z,14.80
2018-04-22T04:15:31.385Z,14.80
2018-04-22T04:21:25.898Z,14.90
2018-04-22T05:52:39.105Z,14.90
2018-04-22T05:55:06.605Z,14.80
2018-04-22T05:57:34.057Z,14.70
2018-04-22T06:00:01.541Z,14.60
2018-04-22T06:02:29.006Z,14.80
2018-04-22T06:04:56.465Z,14.80
2018-04-22T06:07:23.941Z,14.90
2018-04-22T06:09:51.443Z,14.90
2018-04-22T06:12:18.946Z,15.10
2018-04-22T06:14:46.510Z,15.00
2018-04-22T06:17:13.982Z,15.10
2018-04-22T06:19:41.431Z,15.20
2018-04-22T06:22:08.930Z,15.20
2018-04-22T06:24:37.161Z,15.20
2018-04-22T06:27:04.623Z,15.10
2018-04-22T06:29:32.094Z,15.20
2018-04-22T06:31:59.580Z,15.30
2018-04-22T06:34:27.049Z,15.30
2018-04-22T06:36:54.501Z,15.30
2018-04-22T06:39:21.957Z,15.30
2018-04-22T06:41:49.452Z,15.30
2018-04-22T06:44:17.680Z,15.40
2018-04-22T06:46:45.165Z,15.50
2018-04-22T06:49:12.646Z,15.50
2018-04-22T06:51:40.098Z,15.50
2018-04-22T06:54:07.563Z,15.60
2018-04-22T06:56:35.023Z,15.80
2018-04-22T06:59:02.488Z,16.00
2018-04-22T07:01:29.946Z,16.20
2018-04-22T07:03:57.410Z,16.50
2018-04-22T07:06:24.887Z,16.80
2018-04-22T07:08:52.346Z,17.00
2018-04-22T07:11:19.814Z,17.00
2018-04-22T07:13:47.269Z,16.90
2018-04-22T07:16:14.739Z,16.70
2018-04-22T07:18:42.189Z,16.60
2018-04-22T07:21:09.673Z,16.50
2018-04-22T07:23:37.122Z,16.30
2018-04-22T07:26:04.668Z,16.30
2018-04-22T07:28:32.163Z,16.20
2018-04-22T07:31:00.398Z,16.10
2018-04-22T07:33:27.861Z,16.10
2018-04-22T07:35:55.336Z,16.10
2018-04-22T07:38:22.782Z,16.00
2018-04-22T07:40:50.282Z,16.00
2018-04-22T07:43:18.603Z,16.30
2018-04-22T07:45:46.059Z,16.60
2018-04-22T07:48:13.530Z,17.00
2018-04-22T07:50:41.012Z,17.10
2018-04-22T07:53:08.815Z,17.20
2018-04-22T07:55:36.281Z,17.40
2018-04-22T07:58:03.729Z,17.50
2018-04-22T08:00:31.194Z,17.60
2018-04-22T08:02:58.670Z,17.90
2018-04-22T08:05:26.126Z,18.10
2018-04-22T08:07:53.599Z,18.10
2018-04-22T08:10:21.216Z,18.20
2018-04-22T08:12:48.811Z,18.30
2018-04-22T08:15:16.304Z,18.50
2018-04-22T08:17:44.577Z,18.70
2018-04-22T08:20:12.050Z,18.70
2018-04-22T08:22:40.282Z,18.60
2018-04-22T08:25:07.740Z,18.60
2018-04-22T08:27:35.962Z,18.90
2018-04-22T08:30:03.447Z,18.90
2018-04-22T08:32:31.682Z,19.20
2018-04-22T08:34:59.140Z,19.20
2018-04-22T08:37:27.297Z,19.50
2018-04-22T08:39:54.765Z,19.60
2018-04-22T08:42:22.230Z,19.70
2018-04-22T08:44:49.676Z,19.70
2018-04-22T08:47:17.159Z,19.60
2018-04-22T08:49:44.668Z,19.70
2018-04-22T08:52:12.139Z,19.80
2018-04-22T08:54:39.600Z,20.00
2018-04-22T08:57:07.864Z,20.40
2018-04-22T08:59:35.332Z,20.40
2018-04-22T09:02:02.801Z,20.30
2018-04-22T09:04:30.255Z,20.50
2018-04-22T09:06:57.708Z,20.30
2018-04-22T09:09:25.166Z,20.40
2018-04-22T09:11:52.628Z,20.40
2018-04-22T09:14:20.079Z,20.50
2018-04-22T09:16:47.528Z,20.60
2018-04-22T09:19:15.000Z,21.00
2018-04-22T09:21:42.451Z,21.00
2018-04-22T09:24:09.904Z,21.10
2018-04-22T09:26:37.368Z,21.40
2018-04-22T09:29:04.828Z,21.40
2018-04-22T09:31:32.274Z,21.60
2018-04-22T09:33:59.739Z,21.80
2018-04-22T09:36:27.181Z,21.90
2018-04-22T09:38:55.430Z,22.00
2018-04-22T09:41:22.885Z,22.00
2018-04-22T09:43:50.354Z,22.00
2018-04-22T09:46:17.817Z,22.10
2018-04-22T09:48:45.274Z,22.20
2018-04-22T09:51:12.744Z,22.30
2018-04-22T09:53:40.217Z,22.20
2018-04-22T09:56:07.685Z,22.40
2018-04-22T09:58:35.194Z,22.60
2018-04-22T10:01:02.665Z,22.40
2018-04-22T10:03:31.027Z,22.50
2018-04-22T10:06:02.346Z,22.60
2018-04-22T10:08:29.790Z,22.40
2018-04-22T10:10:57.292Z,22.20
2018-04-22T10:13:24.692Z,22.30
2018-04-22T10:15:52.159Z,22.10
2018-04-22T10:18:19.638Z,21.60
2018-04-22T10:20:47.118Z,21.50
2018-04-22T10:23:14.572Z,21.40
2018-04-22T10:25:42.037Z,21.30
2018-04-22T10:28:09.498Z,21.30
2018-04-22T10:30:36.970Z,21.30
2018-04-22T10:33:04.443Z,21.40
2018-04-22T10:35:31.899Z,21.70
2018-04-22T10:37:59.354Z,21.90
2018-04-22T10:40:26.839Z,22.00
2018-04-22T10:45:57.891Z,21.90
2018-04-22T10:57:04.690Z,22.00
2018-04-22T10:59:32.925Z,22.00
2018-04-22T11:02:00.414Z,21.90
2018-04-22T11:04:27.888Z,21.80
2018-04-22T11:06:55.371Z,21.80
2018-04-22T11:09:22.835Z,21.80
2018-04-22T11:11:51.122Z,21.80
2018-04-22T11:14:18.547Z,21.70
2018-04-22T11:16:46.001Z,21.80
2018-04-22T11:19:13.467Z,21.90
2018-04-22T11:21:40.931Z,22.20
2018-04-22T11:24:08.387Z,22.50
2018-04-22T11:26:35.866Z,23.00
2018-04-22T11:29:03.314Z,23.10
2018-04-22T11:31:30.780Z,23.50
2018-04-22T11:33:58.250Z,23.50
2018-04-22T11:36:25.712Z,23.50
2018-04-22T11:38:53.181Z,23.70
2018-04-22T11:41:20.650Z,23.70
2018-04-22T11:43:48.225Z,23.90
2018-04-22T11:46:16.478Z,24.00
2018-04-22T11:48:43.923Z,24.00
2018-04-22T11:51:11.402Z,23.90
2018-04-22T11:53:38.924Z,24.10
2018-04-22T11:56:06.332Z,24.00
2018-04-22T11:58:33.806Z,24.20
2018-04-22T12:01:01.270Z,24.40
2018-04-22T12:03:28.733Z,24.40
2018-04-22T12:05:56.200Z,24.60
2018-04-22T12:08:23.657Z,24.40
2018-04-22T12:10:51.140Z,24.30
2018-04-22T12:13:18.592Z,24.30
2018-04-22T12:15:46.832Z,24.40
2018-04-22T12:18:15.059Z,24.70
2018-04-22T12:20:43.380Z,24.80
2018-04-22T12:23:10.786Z,24.70
2018-04-22T12:25:38.267Z,24.80
2018-04-22T12:28:06.493Z,24.90
2018-04-22T12:30:33.962Z,24.90
2018-04-22T12:33:01.439Z,25.20
2018-04-22T12:35:28.881Z,25.30
2018-04-22T12:37:56.412Z,25.30
2018-04-22T12:40:23.828Z,25.00
2018-04-22T12:42:51.292Z,24.90
2018-04-22T12:45:18.761Z,25.10
2018-04-22T12:47:46.262Z,25.20
2018-04-22T12:50:13.694Z,24.90
2018-04-22T12:52:41.155Z,24.90
2018-04-22T12:55:08.604Z,24.70
2018-04-22T12:57:36.062Z,25.00
2018-04-22T13:00:03.536Z,25.00
2018-04-22T13:02:30.990Z,25.00
2018-04-22T13:04:58.457Z,24.90
2018-04-22T13:07:25.902Z,25.20
2018-04-22T13:09:53.399Z,25.40
2018-04-22T13:12:20.863Z,25.50
2018-04-22T13:14:48.344Z,25.40
2018-04-22T13:17:16.567Z,25.80
2018-04-22T13:19:44.063Z,25.70
2018-04-22T13:22:11.521Z,25.70
2018-04-22T13:24:38.995Z,25.40
2018-04-22T13:27:06.470Z,25.20
2018-04-22T13:29:34.712Z,25.60
2018-04-22T13:32:02.189Z,25.60
2018-04-22T13:34:29.670Z,25.40
2018-04-22T13:36:57.124Z,25.30
2018-04-22T13:39:24.589Z,25.30
2018-04-22T13:41:52.038Z,25.20
2018-04-22T13:44:19.505Z,25.00
2018-04-22T13:46:46.969Z,25.00
2018-04-22T13:49:14.440Z,25.10
2018-04-22T13:51:41.889Z,25.10
2018-04-22T13:54:09.347Z,25.10
2018-04-22T13:56:36.801Z,25.10
2018-04-22T13:59:04.279Z,25.00
2018-04-22T14:01:31.750Z,25.00
2018-04-22T14:03:59.236Z,25.10
2018-04-22T14:06:27.470Z,24.90
2018-04-22T14:08:54.942Z,24.90
2018-04-22T14:11:22.411Z,25.00
2018-04-22T14:13:49.886Z,25.00
2018-04-22T14:16:17.372Z,24.90
2018-04-22T14:18:45.596Z,25.00
2018-04-22T14:21:13.059Z,25.00
2018-04-22T14:23:40.547Z,24.60
2018-04-22T14:26:08.047Z,24.60
2018-04-22T14:28:36.282Z,24.50
2018-04-22T14:31:03.743Z,24.50
2018-04-22T14:33:31.204Z,24.40
2018-04-22T14:35:58.686Z,24.60
2018-04-22T14:38:26.145Z,24.90
2018-04-22T14:40:53.629Z,24.90
2018-04-22T14:43:21.873Z,24.80
2018-04-22T14:46:01.241Z,24.80
2018-04-22T14:48:30.360Z,24.60
2018-04-22T14:50:57.803Z,24.60
2018-04-22T14:53:26.049Z,24.70
2018-04-22T14:55:53.534Z,24.70
2018-04-22T14:58:21.027Z,24.70
2018-04-22T15:00:48.518Z,25.20
2018-04-22T15:03:16.029Z,25.10
2018-04-22T15:05:44.293Z,24.80
2018-04-22T15:08:11.801Z,24.80
2018-04-22T15:10:40.101Z,24.60
2018-04-22T15:13:07.617Z,24.50
2018-04-22T15:15:35.857Z,24.60
2018-04-22T15:18:03.318Z,24.60
2018-04-22T15:20:30.785Z,24.80
2018-04-22T15:22:58.262Z,24.40
2018-04-22T15:25:25.741Z,24.50
2018-04-22T15:27:53.193Z,24.60
2018-04-22T15:30:20.671Z,24.40
2018-04-22T15:32:48.143Z,24.30
2018-04-22T15:35:15.598Z,23.80
2018-04-22T15:37:43.061Z,23.80
2018-04-22T15:40:10.523Z,23.90
2018-04-22T15:42:37.974Z,24.10
2018-04-22T15:45:05.444Z,24.20
2018-04-22T15:47:32.956Z,24.30
2018-04-22T15:50:00.462Z,24.70
2018-04-22T15:52:28.011Z,24.60
2018-04-22T15:54:55.513Z,24.60
2018-04-22T15:57:22.986Z,24.50
2018-04-22T15:59:50.514Z,24.60
2018-04-22T16:02:17.960Z,24.70
2018-04-22T16:04:46.639Z,24.90
2018-04-22T16:07:14.085Z,24.70
2018-04-22T16:09:42.347Z,24.60
2018-04-22T16:12:10.573Z,24.70
2018-04-22T16:14:38.086Z,24.70
2018-04-22T16:17:06.366Z,24.50
2018-04-22T16:19:33.834Z,24.30
2018-04-22T16:22:02.094Z,24.50
2018-04-22T16:24:29.556Z,24.40
2018-04-22T16:26:57.037Z,24.20
2018-04-22T16:29:25.295Z,24.40
2018-04-22T16:31:52.762Z,24.30
2018-04-22T16:34:20.207Z,24.40
2018-04-22T16:36:47.858Z,25.90
2018-04-22T16:39:15.371Z,25.80
2018-04-22T16:41:43.689Z,24.70
2018-04-22T16:44:11.205Z,24.70
2018-04-22T16:46:38.727Z,26.00
2018-04-22T16:49:06.279Z,26.20
2018-04-22T16:51:33.835Z,26.20
2018-04-22T16:54:01.390Z,26.10
2018-04-22T16:56:29.137Z,26.10
2018-04-22T16:58:56.911Z,25.70
2018-04-22T17:01:24.470Z,25.50
2018-04-22T17:03:51.944Z,25.80
2018-04-22T17:06:20.226Z,25.30
2018-04-22T17:08:48.473Z,25.10
2018-04-22T17:11:15.996Z,25.10
2018-04-22T17:13:43.757Z,25.10
2018-04-22T17:16:12.286Z,24.80
2018-04-22T17:18:39.814Z,24.80
2018-04-22T17:21:07.325Z,24.80
2018-04-22T17:23:35.350Z,25.00
2018-04-22T17:26:03.516Z,24.80
2018-04-22T17:28:31.778Z,25.40
2018-04-22T17:31:00.079Z,25.20
2018-04-22T17:33:28.366Z,25.20
2018-04-22T17:35:55.859Z,25.10
2018-04-22T17:38:23.361Z,24.90
2018-04-22T17:40:50.855Z,24.90
2018-04-22T17:43:19.082Z,24.40
2018-04-22T17:45:46.595Z,24.40
2018-04-22T17:48:14.124Z,24.20
2018-04-22T17:50:41.828Z,24.40
2018-04-22T17:53:09.383Z,24.50
2018-04-22T17:55:36.885Z,24.70
2018-04-22T17:58:04.396Z,24.50
2018-04-22T18:00:32.255Z,24.20
2018-04-22T18:06:04.322Z,23.00
2018-04-22T18:08:58.741Z,22.30
2018-04-22T18:11:55.107Z,22.40
2018-04-22T18:14:22.649Z,22.20
2018-04-22T18:16:50.187Z,22.10
2018-04-22T18:28:09.165Z,21.80
2018-04-22T18:30:37.906Z,21.80
2018-04-22T18:33:05.422Z,21.80
2018-04-22T18:35:32.897Z,21.80
2018-04-22T18:41:11.597Z,21.60
2018-04-22T18:43:39.049Z,21.50
2018-04-22T18:46:06.475Z,21.50
2018-04-22T18:48:33.925Z,21.50
2018-04-22T18:51:01.363Z,21.60
2018-04-22T18:53:29.430Z,21.50
2018-04-22T18:55:57.659Z,21.50
2018-04-22T18:58:25.156Z,21.50
2018-04-22T19:00:52.582Z,21.00
2018-04-22T19:03:20.038Z,21.20
2018-04-22T19:05:47.502Z,21.10
2018-04-22T19:08:14.916Z,20.90
2018-04-22T19:10:43.142Z,20.80
2018-04-22T19:13:10.573Z,20.80
2018-04-22T19:15:38.791Z,20.60
2018-04-22T19:18:06.246Z,20.50
2018-04-22T19:20:33.680Z,20.30
2018-04-22T19:23:01.923Z,20.00
2018-04-22T19:25:29.397Z,20.00
2018-04-22T19:27:56.853Z,20.30
2018-04-22T19:30:24.277Z,20.30
2018-04-22T19:32:51.717Z,20.40
2018-04-22T19:35:19.156Z,20.40
2018-04-22T19:37:47.357Z,20.40
2018-04-22T19:40:14.823Z,20.40
2018-04-22T19:42:42.262Z,20.20
2018-04-22T19:45:10.478Z,20.00
2018-04-22T19:47:37.904Z,20.00
2018-04-22T19:50:06.114Z,19.90
2018-04-22T19:52:33.553Z,19.90
2018-04-22T19:55:01.769Z,19.90
2018-04-22T19:57:29.218Z,19.90
2018-04-22T19:59:56.657Z,19.90
2018-04-22T20:02:24.851Z,20.00
2018-04-22T20:04:52.294Z,20.00
2018-04-22T20:07:20.502Z,20.00
2018-04-22T20:09:47.933Z,20.00
2018-04-22T20:12:16.149Z,19.80
2018-04-22T20:14:43.594Z,19.80
2018-04-22T20:17:11.033Z,19.80
2018-04-22T20:19:38.501Z,20.10
2018-04-22T20:22:06.712Z,19.60
2018-04-22T20:24:34.170Z,19.60
2018-04-22T20:27:01.639Z,19.30
2018-04-22T20:29:29.095Z,19.60
2018-04-22T20:31:56.540Z,20.00
2018-04-22T20:34:24.785Z,19.40
2018-04-22T20:36:52.245Z,19.40
2018-04-22T20:39:19.666Z,19.70
2018-04-22T20:41:47.109Z,19.40
2018-04-22T20:44:15.422Z,19.50
2018-04-22T20:46:42.885Z,19.40
2018-04-22T20:49:10.316Z,19.80
2018-04-22T20:51:38.521Z,19.60
2018-04-22T20:54:05.969Z,19.60
2018-04-22T20:56:33.413Z,19.50
2018-04-22T20:59:00.849Z,19.40
2018-04-22T21:01:28.289Z,19.80
2018-04-22T21:03:55.749Z,19.50
2018-04-22T21:06:23.194Z,19.70
2018-04-22T21:08:52.541Z,19.40
2018-04-22T21:11:20.061Z,19.40
2018-04-22T21:13:47.485Z,19.20
2018-04-22T21:16:15.710Z,19.30
2018-04-22T21:18:43.141Z,19.30
2018-04-22T21:21:11.353Z,19.20
2018-04-22T21:23:38.798Z,19.20
2018-04-22T21:26:06.252Z,19.10
2018-04-22T21:28:34.495Z,19.30
2018-04-22T21:31:01.921Z,19.20
2018-04-22T21:33:29.733Z,19.30
2018-04-22T21:35:57.225Z,19.30
2018-04-22T21:38:25.456Z,19.00
2018-04-22T21:40:52.880Z,19.00
2018-04-22T21:43:20.353Z,19.00
2018-04-22T21:45:48.207Z,18.70
2018-04-22T21:48:16.452Z,18.70
2018-04-22T21:50:43.893Z,18.70
2018-04-22T21:53:11.349Z,18.50
2018-04-22T21:55:38.801Z,18.60
2018-04-22T21:58:06.237Z,18.70
2018-04-22T22:00:34.437Z,18.60
2018-04-22T22:03:01.896Z,18.60
2018-04-22T22:05:29.375Z,18.80
2018-04-22T22:07:56.805Z,18.40
2018-04-22T22:10:25.013Z,18.20
2018-04-22T22:12:52.436Z,18.20
2018-04-22T22:15:20.632Z,17.90
2018-04-22T22:17:48.101Z,17.90
2018-04-22T22:20:15.543Z,18.00
2018-04-22T22:22:43.743Z,18.00
2018-04-22T22:25:11.198Z,17.90
2018-04-22T22:27:39.393Z,17.80
2018-04-22T22:30:06.833Z,17.80
2018-04-22T22:32:35.076Z,17.90
2018-04-22T22:35:02.612Z,17.90
2018-04-22T22:37:30.861Z,17.70
2018-04-22T22:39:58.308Z,17.30
2018-04-22T22:42:26.525Z,17.10
2018-04-22T22:44:54.737Z,16.80
2018-04-22T22:47:22.164Z,16.80
2018-04-22T22:49:49.619Z,17.10
2018-04-22T22:52:17.061Z,17.30
2018-04-22T22:54:45.274Z,17.10
2018-04-22T22:57:12.731Z,17.00
2018-04-22T22:59:40.203Z,17.20
2018-04-22T23:02:07.644Z,17.40
2018-04-22T23:04:35.089Z,17.30
2018-04-22T23:07:03.319Z,17.30
2018-04-22T23:09:30.747Z,17.30
2018-04-22T23:11:58.210Z,17.30
2018-04-22T23:14:26.397Z,17.10
2018-04-22T23:16:53.853Z,17.10
2018-04-22T23:19:21.290Z,17.20
2018-04-22T23:21:48.736Z,17.30
2018-04-22T23:24:16.193Z,17.50
2018-04-22T23:26:43.636Z,16.80
2018-04-22T23:29:11.084Z,16.80
2018-04-22T23:31:39.421Z,16.90
2018-04-22T23:34:06.840Z,17.10
2018-04-22T23:36:34.289Z,16.80
2018-04-22T23:39:01.789Z,17.00
2018-04-22T23:41:29.235Z,16.90
2018-04-22T23:43:56.685Z,16.80
2018-04-22T23:46:24.120Z,16.60
2018-04-22T23:48:51.596Z,16.40
2018-04-22T23:51:19.037Z,16.20
2018-04-22T23:53:47.273Z,16.20
2018-04-22T23:56:14.680Z,16.20
2018-04-22T23:58:42.905Z,16.40
